Latest Coastal Weather Observations for Karratha

IDW60701

Issued at 9:53 am WST Thursday 8 December 2016 (issued every 10 minutes, with the page automatically refreshed every 10 minutes)

About coastal observations | Map of coastal stations | Coastal observations for WA | Marine services | Other Formats
Station Details ID: 004083 Name: KARRATHA AERO Lat: -20.71 Lon: 116.77 Height: 5.3 m
Data from the previous 72 hours. | See also: Recent months at Karratha
Date/Time
WST
Temp
°C
Wind Pressure Rain since
9am
mm
Weather Cloud Vis
km
Sea
Height
m
Swell
Dir  Spd
kts
Gust
kts
hPa Trend Height
m
Period
s
Dir
08/09:30am 34.7 WNW 6 10 1009.2 - 0.0 - Partly cloudy 10 - - - -
08/09:00am 34.1 W 6 9 1009.1 - - - - 10 - - - -
08/08:30am 33.3 W 6 10 1009.1 - - - - 10 - - - -
08/08:00am 32.1 WSW 6 9 1009.0 - - - - 10 - - - -
08/07:30am 31.0 SW 6 8 1009.0 - - - - 10 - - - -
08/07:00am 30.2 WSW 7 8 1008.9 - - - - 10 - - - -
08/06:30am 28.9 SW 4 5 1008.9 - - - - 10 - - - -
08/06:00am 28.1 CALM 0 0 1008.9 - - - Mostly clear 10 - - - -
08/05:30am 27.6 CALM 0 2 1008.5 - - - Partly cloudy 10 - - - -
08/05:00am 27.7 SSW 4 4 1008.3 - - - - 10 - - - -
08/04:30am 28.0 S 7 8 1008.1 - - - - 10 - - - -
08/04:00am 27.9 SSE 6 7 1007.6 - - - - 10 - - - -
08/03:30am 27.8 S 8 9 1007.4 - - - - 10 - - - -
08/03:00am 27.7 SSE 2 4 1006.8 - 0.0 - Partly cloudy 10 - - - -
08/02:30am 27.7 S 4 5 1007.1 - - - - 10 - - - -
08/02:00am 28.0 NE 1 4 1007.3 - - - - 10 - - - -
08/01:30am 28.8 NNE 1 4 1007.6 - - - - 10 - - - -
08/01:00am 29.1 N 6 8 1007.6 - - - - 10 - - - -
08/12:30am 28.5 CALM 0 0 1008.6 - - - - 10 - - - -
08/12:00am 28.8 S 3 5 1009.3 - - - - 10 - - - -
 
Date/Time
WST
Temp
°C
Wind Pressure Rain since
9am
mm
Weather Cloud Vis
km
Sea
Height
m
Swell
Dir  Spd
kts
Gust
kts
hPa Trend Height
m
Period
s
Dir
07/11:30pm 28.9 S 4 6 1009.7 - - - - 10 - - - -
07/11:00pm 29.2 S 7 10 1010.1 - - - - 10 - - - -
07/10:30pm 29.6 S 8 9 1010.6 - - - Partly cloudy 10 - - - -
07/10:00pm 29.7 S 12 15 1010.9 - - - Partly cloudy 10 - - - -
07/09:30pm 30.5 SW 11 13 1011.0 - - - Cloudy 10 - - - -
07/09:00pm 31.0 WSW 8 10 1010.7 - - - Cloudy 10 - - - -
07/08:30pm 30.5 W 7 8 1010.2 - - - Partly cloudy 10 - - - -
07/08:00pm 30.1 NNW 6 8 1010.0 - - - - 10 - - - -
07/07:30pm 30.4 N 6 8 1009.5 - - - - 10 - - - -
07/07:00pm 30.6 NNW 8 11 1008.6 - - - - 10 - - - -
07/06:30pm 31.0 NNW 8 11 1008.2 - - - - 10 - - - -
07/06:00pm 32.0 NNW 10 12 1007.7 - - - - 10 - - - -
07/05:30pm 32.4 NNW 9 12 1007.5 - - - - 10 - - - -
07/05:00pm 32.1 NNW 10 14 1007.2 - - - - 10 - - - -
07/04:30pm 32.5 NNW 12 14 1006.8 - - - - 10 - - - -
07/04:00pm 33.6 NNW 11 16 1007.1 - - - - 10 - - - -
07/03:30pm 34.0 NNW 11 14 1007.3 - - - - - - - - -
07/01:30pm 34.2 NE 14 17 1008.7 - 0.0 - - 10 - - - -
07/01:00pm 33.9 NNE 13 17 1009.1 - 0.0 - Partly cloudy 10 - - - -
07/12:30pm 34.6 NNE 12 15 1009.3 - 0.0 - - 10 - - - -
07/12:00pm 33.4 NNE 10 14 1009.5 - 0.0 - - 10 - - - -
07/11:30am 32.8 NE 11 15 1009.9 - 0.0 - - 10 - - - -
07/11:00am 32.7 NNE 9 12 1010.2 - 0.0 - - 10 - - - -
07/10:30am 32.1 NE 10 13 1010.6 - 0.0 - - 10 - - - -
07/10:00am 31.9 NE 6 11 1010.6 - 0.0 - - 10 - - - -
07/09:30am 31.3 N 5 9 1010.7 - 0.0 - - 10 - - - -
07/09:00am 30.8 N 5 9 1010.9 - 0.0 - - 10 - - - -
07/08:30am 30.2 N 5 7 1010.7 - 0.0 - - 10 - - - -
07/08:00am 30.6 SSE 1 4 1010.6 - 0.0 - - 10 - - - -
07/07:30am 29.7 ENE 2 5 1010.6 - 0.0 - - 10 - - - -
07/07:00am 29.1 ENE 4 6 1010.4 - 0.0 - - 10 - - - -
07/06:30am 28.3 ESE 4 5 1010.2 - 0.0 - - 10 - - - -
07/06:00am 27.5 CALM 0 0 1010.0 - 0.0 - - 10 - - - -
07/05:30am 27.0 CALM 0 0 1009.5 - 0.0 - - 10 - - - -
07/05:00am 27.0 CALM 0 0 1009.2 - 0.0 - - 10 - - - -
07/04:30am 27.1 SSW 4 5 1008.9 - 0.0 - - 10 - - - -
07/04:00am 27.1 SSW 5 7 1008.8 - 0.0 - - 10 - - - -
07/03:30am 27.1 SSW 6 8 1008.9 - 0.0 - Partly cloudy 10 - - - -
07/03:00am 27.3 SSW 6 8 1009.1 - 0.0 - Cloudy 10 - - - -
07/02:30am 27.2 SSW 7 8 1009.2 - 0.0 - Partly cloudy 10 - - - -
07/02:00am 27.2 SSW 7 9 1009.2 - 0.0 - Partly cloudy 10 - - - -
07/01:30am 27.2 SW 6 7 1009.3 - 0.0 - Partly cloudy 10 - - - -
07/01:00am 27.4 WSW 7 9 1009.3 - 0.0 - Partly cloudy 10 - - - -
07/12:30am 27.5 W 7 8 1009.5 - 0.0 - Partly cloudy 10 - - - -
07/12:00am 27.5 W 7 8 1009.7 - 0.0 - Mostly clear 10 - - - -
 
Date/Time
WST
Temp
°C
Wind Pressure Rain since
9am
mm
Weather Cloud Vis
km
Sea
Height
m
Swell
Dir  Spd
kts
Gust
kts
hPa Trend Height
m
Period
s
Dir
06/11:30pm 27.6 W 7 8 1010.0 - 0.0 - Partly cloudy 10 - - - -
06/11:00pm 27.5 WNW 6 8 1010.1 - 0.0 - Partly cloudy 10 - - - -
06/10:30pm 27.6 NW 7 9 1010.0 - 0.0 - Partly cloudy 10 - - - -
06/10:00pm 27.5 NW 8 11 1009.9 - 0.0 - - 10 - - - -
06/09:30pm 27.5 NNW 8 11 1009.7 - 0.0 - - 10 - - - -
06/09:00pm 27.8 N 8 11 1009.5 - 0.0 - Partly cloudy 10 - - - -
06/08:30pm 27.8 NNE 10 13 1009.7 - 0.0 - - 10 - - - -
06/08:00pm 27.9 N 9 12 1009.4 - 0.0 - - 10 - - - -
06/07:30pm 28.1 N 9 12 1009.0 - 0.0 - - 10 - - - -
06/07:00pm 28.3 N 9 13 1008.6 - 0.0 - - 10 - - - -
06/06:30pm 28.4 N 11 15 1008.1 - 0.0 - - 10 - - - -
06/06:00pm 29.0 N 10 13 1007.7 - 0.0 - - 10 - - - -
06/05:30pm 30.0 N 11 15 1007.3 - 0.0 - - 10 - - - -
06/05:00pm 30.0 NNW 11 14 1007.0 - 0.0 - - 10 - - - -
06/04:30pm 30.7 NNW 9 12 1007.0 - 0.0 - - 10 - - - -
06/04:00pm 30.9 N 9 11 1007.0 - 0.0 - - 10 - - - -
06/03:30pm 30.9 NNW 8 11 1007.2 - 0.0 - - 10 - - - -
06/03:00pm 31.4 N 8 12 1007.3 - 0.0 - - 10 - - - -
06/02:30pm 32.7 NNW 9 11 1007.4 - 0.0 - - 10 - - - -
06/02:00pm 31.2 NNW 9 13 1007.7 - 0.0 - - 10 - - - -
06/01:30pm 31.0 NNW 10 13 1008.1 - 0.0 - - 10 - - - -
06/01:00pm 31.1 N 9 12 1008.3 - 0.0 - - 10 - - - -
06/12:30pm 31.1 N 8 13 1008.7 - 0.0 - - 10 - - - -
06/12:00pm 30.1 NNE 8 11 1009.0 - 0.0 - - 10 - - - -
06/11:30am 30.5 NE 10 14 1009.3 - 0.0 - - 10 - - - -
06/11:00am 30.5 NNE 7 11 1009.4 - 0.0 - - 10 - - - -
06/10:30am 29.9 NNE 7 11 1009.7 - 0.0 - - 10 - - - -
06/10:00am 29.1 N 6 9 1009.6 - 0.0 - - 10 - - - -
06/09:30am 28.8 N 5 9 1009.8 - 0.0 - - 10 - - - -
06/09:00am 27.9 N 5 8 1009.8 - 0.0 - - 10 - - - -
06/08:30am 27.3 NNE 5 8 1009.8 - 0.0 - Partly cloudy 10 - - - -
06/08:00am 26.8 NNE 6 8 1009.8 - 0.0 - - 10 - - - -
06/07:30am 26.5 NE 6 8 1009.6 - 0.0 - - 10 - - - -
06/07:00am 26.3 N 4 6 1009.6 - 0.0 - Partly cloudy 10 - - - -
06/06:30am 26.0 NE 4 6 1009.3 - 0.0 - - 10 - - - -
06/06:00am 24.7 ENE 4 5 1009.3 - 0.0 - Mostly clear 10 - - - -
06/05:56am 24.5 ENE 4 5 1009.2 - 0.0 - Partly cloudy 10 - - - -
06/05:30am 23.9 ENE 3 5 1009.1 - 0.0 - Cloudy 10 - - - -
06/05:00am 22.9 ESE 4 4 1008.8 - 0.0 - Partly cloudy 10 - - - -
06/04:59am 22.8 SE 4 5 1008.7 - 0.0 - Partly cloudy 10 - - - -
06/04:30am 23.5 SW 5 6 1008.1 - 0.0 - Partly cloudy 10 - - - -
06/04:00am 23.4 WSW 6 8 1008.1 - 0.0 - - 10 - - - -
06/03:30am 24.7 WNW 2 5 1008.1 - 0.0 - - 10 - - - -
06/03:00am 24.7 NNW 5 7 1008.0 - 0.0 - - 10 - - - -
06/02:30am 24.9 NW 4 6 1008.0 - 0.0 - - 10 - - - -
06/02:00am 24.2 CALM 0 0 1008.4 - 0.0 - - 10 - - - -
06/01:30am 24.3 SW 4 5 1008.6 - 0.0 - - 10 - - - -
06/01:00am 24.2 SSW 5 5 1008.8 - 0.0 - - 10 - - - -
06/12:30am 24.3 S 5 7 1008.9 - 0.0 - - 10 - - - -
06/12:00am 25.8 WSW 7 8 1008.9 - 0.0 - - 10 - - - -
 
Date/Time
WST
Temp
°C
Wind Pressure Rain since
9am
mm
Weather Cloud Vis
km
Sea
Height
m
Swell
Dir  Spd
kts
Gust
kts
hPa Trend Height
m
Period
s
Dir
05/11:30pm 25.8 W 7 8 1009.1 - 0.0 - - 10 - - - -
05/11:00pm 26.1 W 8 11 1009.1 - 0.0 - - 10 - - - -
05/10:30pm 25.9 WNW 10 13 1009.0 - 0.0 - - 10 - - - -
05/10:00pm 26.0 WNW 10 13 1008.8 - 0.0 - - 10 - - - -
05/09:30pm 26.0 WNW 13 16 1008.3 - 0.0 - - 10 - - - -
05/09:00pm 25.9 WNW 12 15 1008.3 - 0.0 - - 10 - - - -
05/08:30pm 26.0 WNW 13 16 1008.3 - 0.0 - - 10 - - - -
05/08:00pm 26.1 WNW 11 15 1008.2 - 0.0 - - 10 - - - -
05/07:30pm 26.2 NW 11 14 1008.0 - 0.0 - - 10 - - - -
05/07:00pm 26.6 NW 10 13 1007.5 - 0.0 - - 10 - - - -
05/06:30pm 26.9 NW 10 14 1007.2 - 0.0 - - 10 - - - -
05/06:00pm 27.9 NNW 12 14 1007.0 - 0.0 - - 10 - - - -
05/05:30pm 28.9 NW 11 14 1006.7 - 0.0 - - 10 - - - -
05/05:00pm 29.1 WNW 13 19 1006.7 - 0.0 - - 10 - - - -
05/04:30pm 30.3 NW 12 16 1006.4 - 0.0 - - 10 - - - -
05/04:00pm 31.3 NNW 12 17 1006.1 - 0.0 - - 10 - - - -
05/03:30pm 31.1 NNW 13 16 1006.2 - 0.0 - - 10 - - - -
05/03:00pm 32.2 NNW 12 15 1006.3 - 0.0 - - 10 - - - -
05/02:30pm 32.2 NW 12 16 1006.5 - 0.0 - - 10 - - - -
05/02:00pm 32.2 NW 12 16 1006.8 - 0.0 - - 10 - - - -
05/01:30pm 32.2 NW 11 16 1007.1 - 0.0 - - 10 - - - -
05/01:00pm 31.6 NW 12 16 1007.2 - 0.0 - - 10 - - - -
05/12:30pm 31.4 NW 12 15 1007.4 - 0.0 - - 10 - - - -
05/12:00pm 31.4 NW 11 15 1007.9 - 0.0 - - 10 - - - -
05/11:30am 30.3 WNW 11 14 1008.0 - 0.0 - - 10 - - - -
05/11:00am 29.6 WNW 11 14 1008.3 - 0.0 - - 10 - - - -
05/10:30am 29.7 NW 11 14 1008.7 - 0.0 - - 10 - - - -
05/10:00am 28.9 WNW 8 12 1008.8 - 0.0 - - 10 - - - -

Other Formats:

Comma delimited format used in spreadsheet applications
http://www.bom.gov.au/fwo/IDW60701/IDW60701.95307.axf

JavaScript Object Notation format (JSON) in row-major order
http://www.bom.gov.au/fwo/IDW60701/IDW60701.95307.json